createdAt,value
2023-03-21T00:00:25.270Z,32.60
2023-03-21T00:01:27.597Z,36.63
2023-03-21T00:02:30.739Z,33.22
2023-03-21T00:03:33.956Z,28.95
2023-03-21T00:04:50.298Z,33.10
2023-03-21T00:05:54.087Z,32.22
2023-03-21T00:06:56.481Z,31.92
2023-03-21T00:08:01.024Z,34.73
2023-03-21T00:09:07.851Z,29.40
2023-03-21T00:10:16.613Z,32.78
2023-03-21T00:11:21.717Z,33.72
2023-03-21T00:12:24.233Z,33.30
2023-03-21T00:13:28.380Z,36.38
2023-03-21T00:14:31.204Z,35.83
2023-03-21T00:15:42.668Z,37.10
2023-03-21T00:16:51.387Z,42.33
2023-03-21T00:18:03.510Z,39.58
2023-03-21T00:19:06.764Z,40.00
2023-03-21T00:20:15.230Z,38.53
2023-03-21T00:22:41.023Z,35.92
2023-03-21T00:23:43.637Z,36.92
2023-03-21T00:24:46.606Z,37.63
2023-03-21T00:25:48.944Z,29.20
2023-03-21T00:26:51.253Z,33.42
2023-03-21T00:28:07.538Z,32.88
2023-03-21T00:29:10.928Z,31.77
2023-03-21T00:30:15.409Z,31.20
2023-03-21T00:31:17.997Z,34.57
2023-03-21T00:32:21.434Z,32.92
2023-03-21T00:33:23.959Z,35.10
2023-03-21T00:34:36.926Z,31.80
2023-03-21T00:36:05.751Z,33.08
2023-03-21T00:37:09.723Z,33.10
2023-03-21T00:38:12.168Z,32.05
2023-03-21T00:39:15.462Z,29.87
2023-03-21T00:40:27.858Z,33.40
2023-03-21T00:41:48.919Z,31.33
2023-03-21T00:42:52.724Z,28.97
2023-03-21T00:43:55.774Z,30.17
2023-03-21T00:44:58.296Z,28.58
2023-03-21T00:46:00.853Z,31.12
2023-03-21T00:47:07.895Z,31.85
2023-03-21T00:48:10.853Z,29.83
2023-03-21T00:49:13.672Z,30.65
2023-03-21T00:50:16.695Z,31.17
2023-03-21T00:51:26.667Z,28.23
2023-03-21T00:52:40.310Z,27.80
2023-03-21T00:53:43.338Z,29.27
2023-03-21T00:54:45.810Z,28.42
2023-03-21T00:55:48.255Z,28.85
2023-03-21T00:56:50.710Z,28.92
2023-03-21T00:58:01.451Z,29.50
2023-03-21T00:59:04.515Z,31.05
2023-03-21T01:00:10.177Z,29.98
2023-03-21T01:01:12.718Z,25.20
2023-03-21T01:02:22.800Z,23.85
2023-03-21T01:03:26.776Z,24.27
2023-03-21T01:04:29.337Z,26.93
2023-03-21T01:05:51.645Z,26.55
2023-03-21T01:06:54.785Z,27.98
2023-03-21T01:07:57.817Z,25.98
2023-03-21T01:09:00.542Z,28.83
2023-03-21T01:10:03.110Z,23.40
2023-03-21T01:11:07.326Z,27.27
2023-03-21T01:12:10.694Z,26.95
2023-03-21T01:13:14.113Z,25.98
2023-03-21T01:14:24.956Z,30.83
2023-03-21T01:15:28.964Z,24.07
2023-03-21T01:16:31.711Z,22.73
2023-03-21T01:17:34.521Z,25.27
2023-03-21T01:18:38.221Z,20.90
2023-03-21T01:19:51.641Z,21.45
2023-03-21T01:20:56.271Z,21.17
2023-03-21T01:21:58.649Z,22.98
2023-03-21T01:23:01.193Z,22.37
2023-03-21T01:24:03.571Z,24.40
2023-03-21T01:25:21.543Z,28.60
2023-03-21T01:26:24.865Z,38.93
2023-03-21T01:27:27.298Z,38.45
2023-03-21T01:28:31.135Z,38.40
2023-03-21T01:29:33.552Z,29.52
2023-03-21T01:30:41.728Z,27.13
2023-03-21T01:31:44.576Z,24.65
2023-03-21T01:32:47.432Z,23.60
2023-03-21T01:33:49.827Z,25.48
2023-03-21T01:34:52.227Z,26.80
2023-03-21T01:36:10.001Z,23.37
2023-03-21T01:37:17.849Z,22.37
2023-03-21T01:38:20.621Z,21.37
2023-03-21T01:39:24.057Z,26.20
2023-03-21T01:40:26.923Z,40.30
2023-03-21T01:41:46.687Z,47.35
2023-03-21T01:42:49.718Z,45.12
2023-03-21T01:43:54.862Z,41.40
2023-03-21T01:44:59.969Z,41.55
2023-03-21T01:46:10.108Z,46.37
2023-03-21T01:47:13.747Z,42.50
2023-03-21T01:48:16.959Z,36.60
2023-03-21T01:49:28.099Z,29.35
2023-03-21T01:50:31.646Z,28.52
2023-03-21T01:51:36.422Z,27.13
2023-03-21T01:52:41.827Z,28.75
2023-03-21T01:53:45.395Z,24.35
2023-03-21T01:54:48.072Z,24.55
2023-03-21T01:55:50.688Z,23.60
2023-03-21T01:56:56.261Z,25.40
2023-03-21T01:58:07.960Z,31.27
2023-03-21T01:59:21.688Z,30.57
2023-03-21T02:00:26.805Z,30.98
2023-03-21T02:01:31.875Z,30.15
2023-03-21T02:02:37.631Z,28.75
2023-03-21T02:03:51.255Z,25.45
2023-03-21T02:04:58.306Z,24.55
2023-03-21T02:06:12.652Z,23.60
2023-03-21T02:07:18.138Z,22.95
2023-03-21T02:08:25.908Z,25.35
2023-03-21T02:09:40.972Z,21.20
2023-03-21T02:10:50.432Z,23.53
2023-03-21T02:11:56.118Z,28.12
2023-03-21T02:13:09.507Z,40.70
2023-03-21T02:14:26.757Z,29.83
2023-03-21T02:15:31.526Z,26.70
2023-03-21T02:16:34.261Z,27.15
2023-03-21T02:17:41.115Z,26.35
2023-03-21T02:18:44.545Z,26.25
2023-03-21T02:20:11.600Z,30.58
2023-03-21T02:21:20.340Z,26.17
2023-03-21T02:22:29.161Z,27.33
2023-03-21T02:23:40.876Z,24.20
2023-03-21T02:25:08.198Z,26.45
2023-03-21T02:26:41.146Z,25.77
2023-03-21T02:28:12.420Z,29.65
2023-03-21T02:29:34.279Z,26.10
2023-03-21T02:31:05.562Z,25.80
2023-03-21T02:32:31.521Z,23.08
2023-03-21T02:33:40.227Z,24.58
2023-03-21T02:34:42.566Z,27.73
2023-03-21T02:35:54.161Z,24.97
2023-03-21T02:37:03.525Z,23.05
2023-03-21T02:38:06.389Z,23.08
2023-03-21T02:39:13.671Z,25.65
2023-03-21T02:40:31.171Z,23.70
2023-03-21T02:41:42.094Z,21.67
2023-03-21T02:42:51.781Z,22.33
2023-03-21T02:44:19.712Z,22.87
2023-03-21T02:45:25.878Z,21.52
2023-03-21T02:46:42.909Z,21.03
2023-03-21T02:47:49.850Z,26.77
2023-03-21T02:49:01.240Z,23.80
2023-03-21T02:50:04.041Z,24.30
2023-03-21T02:51:08.076Z,24.05
2023-03-21T02:52:18.779Z,24.23
2023-03-21T02:53:27.841Z,26.27
2023-03-21T02:54:47.070Z,26.35
2023-03-21T02:55:52.971Z,25.88
2023-03-21T02:56:58.255Z,28.87
2023-03-21T02:58:12.377Z,28.47
2023-03-21T02:59:17.494Z,30.93
2023-03-21T03:00:21.692Z,27.73
2023-03-21T03:01:26.053Z,30.55
2023-03-21T03:02:30.969Z,30.65
2023-03-21T03:03:39.030Z,26.25
2023-03-21T03:04:41.533Z,29.67
2023-03-21T03:05:45.951Z,27.80
2023-03-21T03:07:07.027Z,27.40
2023-03-21T03:08:12.485Z,29.25
2023-03-21T03:09:15.118Z,30.67
2023-03-21T03:10:17.548Z,29.07
2023-03-21T03:11:19.869Z,28.05
2023-03-21T03:12:28.918Z,26.77
2023-03-21T03:13:40.789Z,25.17
2023-03-21T03:15:00.217Z,27.48
2023-03-21T03:16:12.235Z,27.48
2023-03-21T03:17:20.542Z,28.80
2023-03-21T03:18:52.800Z,25.90
2023-03-21T03:20:15.679Z,26.95
2023-03-21T03:21:19.133Z,28.47
2023-03-21T03:22:25.446Z,28.43
2023-03-21T03:23:35.167Z,31.58
2023-03-21T03:24:39.856Z,26.50
2023-03-21T03:25:50.291Z,31.92
2023-03-21T03:26:55.390Z,34.85
2023-03-21T03:27:58.740Z,33.88
2023-03-21T03:29:06.906Z,33.22
2023-03-21T03:30:11.206Z,32.75
2023-03-21T03:31:15.853Z,31.40
2023-03-21T03:32:25.652Z,31.37
2023-03-21T03:33:29.721Z,29.90
2023-03-21T03:34:34.998Z,28.27
2023-03-21T03:35:37.755Z,26.70
2023-03-21T03:36:42.031Z,26.08
2023-03-21T03:37:48.210Z,27.92
2023-03-21T03:38:51.695Z,26.67
2023-03-21T03:40:05.174Z,31.62
2023-03-21T03:41:15.529Z,30.75
2023-03-21T03:42:28.043Z,29.60
2023-03-21T03:43:39.706Z,26.40
2023-03-21T03:44:43.753Z,23.03
2023-03-21T03:45:48.983Z,24.10
2023-03-21T03:46:55.463Z,24.15
2023-03-21T03:48:08.539Z,25.12
2023-03-21T03:49:15.493Z,24.92
2023-03-21T03:50:27.225Z,20.77
2023-03-21T03:51:42.917Z,21.15
2023-03-21T03:52:57.386Z,24.85
2023-03-21T03:54:06.656Z,21.27
2023-03-21T03:55:11.548Z,23.10
2023-03-21T03:56:14.769Z,22.07
2023-03-21T03:57:18.774Z,23.73
2023-03-21T03:58:24.180Z,27.08
2023-03-21T03:59:28.544Z,22.62
2023-03-21T04:00:32.708Z,21.50
2023-03-21T04:01:37.572Z,25.88
2023-03-21T04:02:42.036Z,25.52
2023-03-21T04:03:50.518Z,23.48
2023-03-21T04:04:57.924Z,22.27
2023-03-21T04:06:00.510Z,28.07
2023-03-21T04:07:03.734Z,24.17
2023-03-21T04:08:06.868Z,25.10
2023-03-21T04:09:20.700Z,23.30
2023-03-21T04:10:25.629Z,22.05
2023-03-21T04:11:30.424Z,22.48
2023-03-21T04:12:33.391Z,23.77
2023-03-21T04:13:39.605Z,27.40
2023-03-21T04:14:47.131Z,25.80
2023-03-21T04:15:50.719Z,24.15
2023-03-21T04:16:54.690Z,27.07
2023-03-21T04:17:57.712Z,28.80
2023-03-21T04:19:00.203Z,24.27
2023-03-21T04:20:12.089Z,29.40
2023-03-21T04:21:27.577Z,25.40
2023-03-21T04:22:31.267Z,31.67
2023-03-21T04:23:36.607Z,24.45
2023-03-21T04:24:40.087Z,27.15
2023-03-21T04:25:55.578Z,30.02
2023-03-21T04:27:00.570Z,28.50
2023-03-21T04:28:05.009Z,27.37
2023-03-21T04:29:08.023Z,30.13
2023-03-21T04:30:12.252Z,28.50
2023-03-21T04:31:25.602Z,24.77
2023-03-21T04:32:28.735Z,31.33
2023-03-21T04:33:32.468Z,23.95
2023-03-21T04:34:40.440Z,32.85
2023-03-21T04:35:46.339Z,24.83
2023-03-21T04:36:50.901Z,25.23
2023-03-21T04:37:54.533Z,24.77
2023-03-21T04:39:00.989Z,29.23
2023-03-21T04:40:07.034Z,26.30
2023-03-21T04:41:09.610Z,28.52
2023-03-21T04:42:14.500Z,27.90
2023-03-21T04:43:17.899Z,25.20
2023-03-21T04:44:21.035Z,29.85
2023-03-21T04:45:24.429Z,29.25
2023-03-21T04:46:26.798Z,27.23
2023-03-21T04:47:29.888Z,50.60
2023-03-21T04:48:32.313Z,66.03
2023-03-21T04:49:35.564Z,61.70
2023-03-21T04:50:38.689Z,28.13
2023-03-21T04:51:41.255Z,27.62
2023-03-21T04:52:43.861Z,26.83
2023-03-21T04:53:49.355Z,28.30
2023-03-21T04:54:51.732Z,23.35
2023-03-21T04:55:55.641Z,26.80
2023-03-21T04:56:58.590Z,26.25
2023-03-21T04:58:02.051Z,24.10
2023-03-21T04:59:12.311Z,25.92
2023-03-21T05:00:15.426Z,23.80
2023-03-21T05:01:20.898Z,23.47
2023-03-21T05:02:23.607Z,24.33
2023-03-21T05:03:25.991Z,21.92
2023-03-21T05:04:28.445Z,25.02
2023-03-21T05:05:31.818Z,33.17
2023-03-21T05:06:34.697Z,26.08
2023-03-21T05:07:39.546Z,29.92
2023-03-21T05:08:42.608Z,29.02
2023-03-21T05:09:47.114Z,26.85
2023-03-21T05:10:52.533Z,29.00
2023-03-21T05:11:56.274Z,31.27
2023-03-21T05:12:58.820Z,32.28
2023-03-21T05:14:02.923Z,35.38
2023-03-21T05:15:07.096Z,30.75
2023-03-21T05:16:10.197Z,33.30
2023-03-21T05:17:25.196Z,31.02
2023-03-21T05:18:27.566Z,27.77
2023-03-21T05:19:40.650Z,30.42
2023-03-21T05:20:43.406Z,32.60
2023-03-21T05:21:46.387Z,34.73
2023-03-21T05:22:51.621Z,28.67
2023-03-21T05:23:58.473Z,28.33
2023-03-21T05:25:00.954Z,27.98
2023-03-21T05:26:05.221Z,34.13
2023-03-21T05:27:08.458Z,32.17
2023-03-21T05:28:13.047Z,34.20
2023-03-21T05:29:19.156Z,32.08
2023-03-21T05:30:26.059Z,27.40
2023-03-21T05:31:31.646Z,31.15
2023-03-21T05:32:34.698Z,35.83
2023-03-21T05:33:37.378Z,36.70
2023-03-21T05:34:39.799Z,37.80
2023-03-21T05:35:42.214Z,35.55
2023-03-21T05:36:45.699Z,43.97
2023-03-21T05:37:48.670Z,37.95
2023-03-21T05:38:51.618Z,32.38
2023-03-21T05:39:54.815Z,33.22
2023-03-21T05:40:57.567Z,30.48
2023-03-21T05:41:59.991Z,35.15
2023-03-21T05:43:02.945Z,30.93
2023-03-21T05:44:06.254Z,35.40
2023-03-21T05:45:08.774Z,33.20
2023-03-21T05:46:12.010Z,31.65
2023-03-21T05:47:16.107Z,37.92
2023-03-21T05:48:19.389Z,30.25
2023-03-21T05:49:24.964Z,33.08
2023-03-21T05:50:29.477Z,31.35
2023-03-21T05:51:36.039Z,29.30
2023-03-21T05:52:38.792Z,29.63
2023-03-21T05:53:44.252Z,29.23
2023-03-21T05:54:47.228Z,28.60
2023-03-21T05:55:49.908Z,33.17
2023-03-21T05:56:55.994Z,38.20
2023-03-21T05:57:59.357Z,39.10
2023-03-21T05:59:02.363Z,35.00
2023-03-21T06:00:07.282Z,72.32
2023-03-21T06:01:19.446Z,57.85
2023-03-21T06:02:23.540Z,103.25
2023-03-21T06:03:26.202Z,65.28
2023-03-21T06:04:29.447Z,73.97
2023-03-21T06:05:32.169Z,66.77
2023-03-21T06:06:35.146Z,34.70
2023-03-21T06:07:40.288Z,38.20
2023-03-21T06:08:43.146Z,37.58
2023-03-21T06:09:46.846Z,37.03
2023-03-21T06:10:49.281Z,40.12
2023-03-21T06:11:53.150Z,37.40
2023-03-21T06:12:56.272Z,36.08
2023-03-21T06:13:59.721Z,37.67
2023-03-21T06:15:04.493Z,36.23
2023-03-21T06:16:07.304Z,35.60
2023-03-21T06:17:10.011Z,37.08
2023-03-21T06:18:15.855Z,35.95
2023-03-21T06:19:18.928Z,36.90
2023-03-21T06:20:22.214Z,36.72
2023-03-21T06:21:26.861Z,34.90
2023-03-21T06:22:29.423Z,36.00
2023-03-21T06:23:32.273Z,32.17
2023-03-21T06:24:34.686Z,36.65
2023-03-21T06:25:37.226Z,34.60
2023-03-21T06:26:42.495Z,39.73
2023-03-21T06:27:45.350Z,38.22
2023-03-21T06:28:51.777Z,35.47
2023-03-21T06:29:55.084Z,40.50
2023-03-21T06:30:58.314Z,38.38
2023-03-21T06:32:01.550Z,43.25
2023-03-21T06:33:04.738Z,40.55
2023-03-21T06:34:08.210Z,43.75
2023-03-21T06:35:10.896Z,47.30
2023-03-21T06:36:13.601Z,46.60
2023-03-21T06:37:16.664Z,53.20
2023-03-21T06:38:19.770Z,54.33
2023-03-21T06:39:23.333Z,48.67
2023-03-21T06:40:26.909Z,51.58
2023-03-21T06:41:30.316Z,50.33
2023-03-21T06:42:33.910Z,52.78
2023-03-21T06:43:37.379Z,47.40
2023-03-21T06:44:41.033Z,50.95
2023-03-21T06:45:44.805Z,50.83
2023-03-21T06:46:48.261Z,53.83
2023-03-21T06:47:52.394Z,46.43
2023-03-21T06:48:56.308Z,53.70
2023-03-21T06:49:59.754Z,53.97
2023-03-21T06:51:02.868Z,47.47
2023-03-21T06:52:06.310Z,53.58
2023-03-21T06:53:09.740Z,53.28
2023-03-21T06:54:17.924Z,50.33
2023-03-21T06:55:26.397Z,51.35
2023-03-21T06:56:36.120Z,46.72
2023-03-21T06:57:39.437Z,52.70
2023-03-21T06:58:42.689Z,44.83
2023-03-21T06:59:46.572Z,43.97
2023-03-21T07:00:50.226Z,41.47
2023-03-21T07:01:53.764Z,40.33
2023-03-21T07:02:57.098Z,41.85
2023-03-21T07:04:00.222Z,37.40
2023-03-21T07:05:03.738Z,36.85
2023-03-21T07:06:08.915Z,44.08
2023-03-21T07:07:11.899Z,39.90
2023-03-21T07:08:15.040Z,41.50
2023-03-21T07:09:20.155Z,34.53
2023-03-21T07:10:23.290Z,35.55
2023-03-21T07:11:30.113Z,38.95
2023-03-21T07:12:36.087Z,40.33
2023-03-21T07:13:39.332Z,41.60
2023-03-21T07:14:41.895Z,43.17
2023-03-21T07:15:44.338Z,47.58
2023-03-21T07:16:48.147Z,50.47
2023-03-21T07:17:50.789Z,48.17
2023-03-21T07:18:53.243Z,45.70
2023-03-21T07:19:55.981Z,46.43
2023-03-21T07:20:59.005Z,43.42
2023-03-21T07:22:01.728Z,42.60
2023-03-21T07:23:05.145Z,44.10
2023-03-21T07:24:07.940Z,41.15
2023-03-21T07:25:11.202Z,45.53
2023-03-21T07:26:13.711Z,45.70
2023-03-21T07:27:17.133Z,41.70
2023-03-21T07:28:21.792Z,39.65
2023-03-21T07:29:25.692Z,36.20
2023-03-21T07:30:28.715Z,44.43
2023-03-21T07:31:32.249Z,41.35
2023-03-21T07:32:35.749Z,50.95
2023-03-21T07:33:38.902Z,86.25
2023-03-21T07:34:42.425Z,47.53
2023-03-21T07:35:45.076Z,47.67
2023-03-21T07:36:47.945Z,39.10
2023-03-21T07:37:50.914Z,40.22
2023-03-21T07:38:53.793Z,35.05
2023-03-21T07:39:58.153Z,37.00
2023-03-21T07:41:00.904Z,55.40
2023-03-21T07:42:04.979Z,46.75
2023-03-21T07:43:10.161Z,31.02
2023-03-21T07:44:13.376Z,31.08
2023-03-21T07:45:21.361Z,61.53
2023-03-21T07:46:24.059Z,103.00
2023-03-21T07:47:26.494Z,59.83
2023-03-21T07:48:30.334Z,31.55
2023-03-21T07:49:32.675Z,27.02
2023-03-21T07:50:35.780Z,36.03
2023-03-21T07:51:38.285Z,32.50
2023-03-21T07:52:41.570Z,26.08
2023-03-21T07:53:48.550Z,26.48
2023-03-21T07:54:51.003Z,30.83
2023-03-21T07:55:56.419Z,26.70
2023-03-21T07:56:59.403Z,26.85
2023-03-21T07:58:03.185Z,25.33
2023-03-21T07:59:05.980Z,31.23
2023-03-21T08:00:08.843Z,19.42
2023-03-21T08:01:14.935Z,29.98
2023-03-21T08:02:18.060Z,42.97
2023-03-21T08:03:20.557Z,39.50
2023-03-21T08:04:22.935Z,21.00
2023-03-21T08:05:30.110Z,23.40
2023-03-21T08:06:32.666Z,21.90
2023-03-21T08:07:36.126Z,23.42
2023-03-21T08:08:39.036Z,24.23
2023-03-21T08:09:43.269Z,21.87
2023-03-21T08:10:46.266Z,23.62
2023-03-21T08:11:48.622Z,20.95
2023-03-21T08:12:51.486Z,23.67
2023-03-21T08:13:55.583Z,45.03
2023-03-21T08:15:00.629Z,68.55
2023-03-21T08:16:04.875Z,54.90
2023-03-21T08:17:09.501Z,42.30
2023-03-21T08:18:12.322Z,29.85
2023-03-21T08:19:14.726Z,25.00
2023-03-21T08:20:18.713Z,28.25
2023-03-21T08:21:21.191Z,31.55
2023-03-21T08:22:23.798Z,21.23
2023-03-21T08:23:27.149Z,28.23
2023-03-21T08:24:30.137Z,28.20
2023-03-21T08:25:33.248Z,27.48
2023-03-21T08:26:35.549Z,34.70
2023-03-21T08:27:38.126Z,24.00
2023-03-21T08:28:41.667Z,25.88
2023-03-21T08:29:44.036Z,26.95
2023-03-21T08:30:56.490Z,34.72
2023-03-21T08:31:58.937Z,25.37
2023-03-21T08:33:01.930Z,28.25
2023-03-21T08:34:04.722Z,31.27
2023-03-21T08:35:11.642Z,49.15
2023-03-21T08:36:14.273Z,50.00
2023-03-21T08:37:16.612Z,25.60
2023-03-21T08:38:19.309Z,71.37
2023-03-21T08:39:22.623Z,89.18
2023-03-21T08:40:26.076Z,86.50
2023-03-21T08:41:28.464Z,53.05
2023-03-21T08:42:30.949Z,53.72
2023-03-21T08:43:33.567Z,43.47
2023-03-21T08:44:36.265Z,31.73
2023-03-21T08:45:38.800Z,77.03
2023-03-21T08:46:41.450Z,61.85
2023-03-21T08:47:47.391Z,57.88
2023-03-21T08:48:49.988Z,63.97
2023-03-21T08:49:52.816Z,29.98
2023-03-21T08:50:55.235Z,29.65
2023-03-21T08:51:57.654Z,49.33
2023-03-21T08:53:00.234Z,96.00
2023-03-21T08:54:02.642Z,44.65
2023-03-21T08:55:05.778Z,21.23
2023-03-21T08:56:08.481Z,19.62
2023-03-21T08:57:11.476Z,27.02
2023-03-21T08:58:13.915Z,19.02
2023-03-21T08:59:16.549Z,20.92
2023-03-21T09:00:20.830Z,27.30
2023-03-21T09:01:23.468Z,23.67
2023-03-21T09:02:26.669Z,30.40
2023-03-21T09:03:30.393Z,41.85
2023-03-21T09:04:32.978Z,34.45
2023-03-21T09:05:37.389Z,46.53
2023-03-21T09:06:49.777Z,26.25
2023-03-21T09:07:52.979Z,29.52
2023-03-21T09:08:55.365Z,36.15
2023-03-21T09:10:19.161Z,29.02
2023-03-21T09:11:21.222Z,26.23
2023-03-21T09:12:23.513Z,20.50
2023-03-21T09:13:26.729Z,25.45
2023-03-21T09:14:29.528Z,19.65
2023-03-21T09:15:32.010Z,19.98
2023-03-21T09:16:34.738Z,23.23
2023-03-21T09:17:42.553Z,31.83
2023-03-21T09:18:45.424Z,23.15
2023-03-21T09:19:49.342Z,26.23
2023-03-21T09:20:51.989Z,23.75
2023-03-21T09:21:55.814Z,21.95
2023-03-21T09:22:59.270Z,21.87
2023-03-21T09:24:02.911Z,22.30
2023-03-21T09:25:08.354Z,23.05
2023-03-21T09:26:11.383Z,21.98
2023-03-21T09:27:15.832Z,26.33
2023-03-21T09:28:18.247Z,29.20
2023-03-21T09:29:21.544Z,25.60
2023-03-21T09:30:26.235Z,24.30
2023-03-21T09:31:29.004Z,28.92
2023-03-21T09:32:31.800Z,26.45
2023-03-21T09:33:35.468Z,23.80
2023-03-21T09:34:41.178Z,20.48
2023-03-21T09:35:43.746Z,40.42
2023-03-21T09:36:48.549Z,46.60
2023-03-21T09:37:51.686Z,68.13
2023-03-21T09:38:57.019Z,29.60
2023-03-21T09:39:59.719Z,22.20
2023-03-21T09:41:05.141Z,21.67
2023-03-21T09:42:15.372Z,19.77
2023-03-21T09:43:23.823Z,22.95
2023-03-21T09:44:29.283Z,26.77
2023-03-21T09:45:35.635Z,25.70
2023-03-21T09:46:50.993Z,24.25
2023-03-21T09:47:53.964Z,26.08
2023-03-21T09:48:59.732Z,27.13
2023-03-21T09:50:14.114Z,27.58
2023-03-21T09:51:19.069Z,30.77
2023-03-21T09:52:24.561Z,25.73
2023-03-21T09:53:35.576Z,27.55
2023-03-21T09:54:40.696Z,36.05
2023-03-21T09:55:44.593Z,27.08
2023-03-21T09:56:47.758Z,25.95
2023-03-21T09:58:21.195Z,28.17
2023-03-21T09:59:33.806Z,21.48
2023-03-21T10:00:39.827Z,30.67
2023-03-21T10:01:45.612Z,24.15
2023-03-21T10:02:50.078Z,25.00
2023-03-21T10:03:54.855Z,29.17
2023-03-21T10:04:58.184Z,23.38
2023-03-21T10:06:03.787Z,21.00
2023-03-21T10:07:08.021Z,25.80
2023-03-21T10:08:16.136Z,19.65
2023-03-21T10:09:24.756Z,23.38
2023-03-21T10:10:33.979Z,26.00
2023-03-21T10:11:56.779Z,24.73
2023-03-21T10:12:59.536Z,25.10
2023-03-21T10:14:04.538Z,25.48
2023-03-21T10:15:12.429Z,22.33
2023-03-21T10:16:16.452Z,17.30
2023-03-21T10:17:34.556Z,20.40
2023-03-21T10:18:38.130Z,19.58
2023-03-21T10:19:42.062Z,19.12
2023-03-21T10:20:44.430Z,23.50
2023-03-21T10:22:00.216Z,19.02
2023-03-21T10:23:05.444Z,19.90
2023-03-21T10:24:12.363Z,18.50
2023-03-21T10:25:16.280Z,21.87
2023-03-21T10:26:21.433Z,21.45
2023-03-21T10:27:23.828Z,19.12
2023-03-21T10:28:29.969Z,22.30
2023-03-21T10:29:42.415Z,23.02
2023-03-21T10:30:46.644Z,20.67
2023-03-21T10:31:50.534Z,22.00
2023-03-21T10:32:52.995Z,15.73
2023-03-21T10:33:56.654Z,23.30
2023-03-21T10:35:00.040Z,21.17
2023-03-21T10:36:05.566Z,19.42
2023-03-21T10:37:08.183Z,19.05
2023-03-21T10:38:15.558Z,19.58
2023-03-21T10:39:27.452Z,19.85
2023-03-21T10:40:30.218Z,16.60
2023-03-21T10:41:33.243Z,17.67
2023-03-21T10:42:36.762Z,21.02
2023-03-21T10:43:40.985Z,22.27
2023-03-21T10:44:47.137Z,22.20
2023-03-21T10:45:49.843Z,18.73
2023-03-21T10:46:57.031Z,19.05
2023-03-21T10:48:02.794Z,21.48
2023-03-21T10:49:07.664Z,20.80
2023-03-21T10:50:13.086Z,18.75
2023-03-21T10:51:18.341Z,20.23
2023-03-21T10:52:22.458Z,19.25
2023-03-21T10:53:30.011Z,16.52
2023-03-21T10:54:33.343Z,19.33
2023-03-21T10:55:40.944Z,22.83
2023-03-21T10:56:46.001Z,22.50
2023-03-21T10:57:48.856Z,30.73
2023-03-21T10:58:52.794Z,17.40
2023-03-21T10:59:58.157Z,21.25
2023-03-21T11:01:05.052Z,20.33
2023-03-21T11:02:14.772Z,32.92
2023-03-21T11:03:23.098Z,27.55
2023-03-21T11:04:27.535Z,22.73
2023-03-21T11:05:38.504Z,16.35
2023-03-21T11:06:42.729Z,16.43
2023-03-21T11:07:45.639Z,14.27
2023-03-21T11:08:50.509Z,18.92
2023-03-21T11:09:57.739Z,17.73
2023-03-21T11:11:08.033Z,16.62
2023-03-21T11:12:11.572Z,19.77
2023-03-21T11:13:18.555Z,16.02
2023-03-21T11:14:39.806Z,17.27
2023-03-21T11:15:49.015Z,16.42
2023-03-21T11:16:51.986Z,20.20
2023-03-21T11:17:54.403Z,17.80
2023-03-21T11:19:00.689Z,15.48
2023-03-21T11:20:10.381Z,16.33
2023-03-21T11:21:13.781Z,16.52
2023-03-21T11:22:16.797Z,17.58
2023-03-21T11:23:20.726Z,17.75
2023-03-21T11:24:23.859Z,19.75
2023-03-21T11:25:39.638Z,19.75
2023-03-21T11:26:44.555Z,17.12
2023-03-21T11:27:48.526Z,20.65
2023-03-21T11:28:54.099Z,17.87
2023-03-21T11:29:58.051Z,16.77
2023-03-21T11:31:02.206Z,18.92
2023-03-21T11:32:23.810Z,18.15
2023-03-21T11:33:28.000Z,17.48
2023-03-21T11:34:30.650Z,20.25
2023-03-21T11:35:38.200Z,18.12
2023-03-21T11:36:40.959Z,16.95
2023-03-21T11:37:47.882Z,17.23
2023-03-21T11:38:52.249Z,19.67
2023-03-21T11:39:56.048Z,17.47
2023-03-21T11:41:00.330Z,16.48
2023-03-21T11:42:03.082Z,17.02
2023-03-21T11:43:11.631Z,17.73
2023-03-21T11:44:28.204Z,48.40
2023-03-21T11:45:35.674Z,19.25
2023-03-21T11:46:40.774Z,19.62
2023-03-21T11:47:43.661Z,18.73
2023-03-21T11:48:49.091Z,18.83
2023-03-21T11:49:58.389Z,18.77
2023-03-21T11:51:25.785Z,16.93
2023-03-21T11:52:38.346Z,17.02
2023-03-21T11:53:46.672Z,17.25
2023-03-21T11:55:08.216Z,16.00
2023-03-21T11:56:16.768Z,18.55
2023-03-21T11:57:25.014Z,17.37
2023-03-21T11:58:38.579Z,17.62
2023-03-21T11:59:51.459Z,17.25
2023-03-21T12:00:54.850Z,15.75
2023-03-21T12:02:16.928Z,17.65
2023-03-21T12:03:47.298Z,16.77
2023-03-21T12:05:08.884Z,16.48
2023-03-21T12:06:17.792Z,16.52
2023-03-21T12:07:28.455Z,20.80
2023-03-21T12:08:43.758Z,16.20
2023-03-21T12:10:04.748Z,15.88
2023-03-21T12:11:26.136Z,17.95
2023-03-21T12:12:38.869Z,15.88
2023-03-21T12:13:47.178Z,15.88
2023-03-21T12:14:49.862Z,14.87
2023-03-21T12:16:03.982Z,16.50
2023-03-21T12:17:18.389Z,13.85
2023-03-21T12:18:33.423Z,14.52
2023-03-21T12:19:49.266Z,15.18
2023-03-21T12:20:51.784Z,16.70
2023-03-21T12:22:00.871Z,16.17
2023-03-21T12:23:03.199Z,14.35
2023-03-21T12:24:10.708Z,15.27
2023-03-21T12:25:13.077Z,19.48
2023-03-21T12:26:42.124Z,16.83
2023-03-21T12:28:03.761Z,13.63
2023-03-21T12:29:06.458Z,15.95
2023-03-21T12:30:12.408Z,16.65
2023-03-21T12:31:18.165Z,15.75
2023-03-21T12:32:29.430Z,15.65
2023-03-21T12:33:41.287Z,17.15
2023-03-21T12:34:44.170Z,16.50
2023-03-21T12:36:06.777Z,18.05
2023-03-21T12:37:17.819Z,14.80
2023-03-21T12:38:20.501Z,15.70
2023-03-21T12:39:30.694Z,14.97
2023-03-21T12:40:44.433Z,17.12
2023-03-21T12:41:49.619Z,14.50
2023-03-21T12:43:00.952Z,13.65
2023-03-21T12:44:05.908Z,19.33
2023-03-21T12:45:15.185Z,15.32
2023-03-21T12:46:18.712Z,14.73
2023-03-21T12:47:23.420Z,15.05
2023-03-21T12:48:55.267Z,14.90
2023-03-21T12:50:06.354Z,14.68
2023-03-21T12:51:11.756Z,17.63
2023-03-21T12:52:22.079Z,17.27
2023-03-21T12:53:43.610Z,17.58
2023-03-21T12:54:51.743Z,16.35
2023-03-21T12:55:58.729Z,16.48
2023-03-21T12:57:04.817Z,16.27
2023-03-21T12:58:11.697Z,17.20
2023-03-21T12:59:20.594Z,20.12
2023-03-21T13:00:25.912Z,17.48
2023-03-21T13:01:29.087Z,20.08
2023-03-21T13:02:38.183Z,21.55
2023-03-21T13:03:51.032Z,16.90
2023-03-21T13:05:17.326Z,17.48
2023-03-21T13:06:22.840Z,14.20
2023-03-21T13:07:26.797Z,14.43
2023-03-21T13:08:33.696Z,14.45
2023-03-21T13:09:40.987Z,17.73
2023-03-21T13:10:45.418Z,13.23
2023-03-21T13:11:48.611Z,14.45
2023-03-21T13:13:13.681Z,14.07
2023-03-21T13:14:20.811Z,14.23
2023-03-21T13:15:30.927Z,13.73
2023-03-21T13:16:33.311Z,16.25
2023-03-21T13:17:59.164Z,14.52
2023-03-21T13:19:04.490Z,12.77
2023-03-21T13:20:22.467Z,11.48
2023-03-21T13:21:31.971Z,15.07
2023-03-21T13:22:34.542Z,15.23
2023-03-21T13:23:38.289Z,14.48
2023-03-21T13:24:44.161Z,17.55
2023-03-21T13:25:48.372Z,15.35
2023-03-21T13:26:56.891Z,12.43
2023-03-21T13:28:03.473Z,18.70
2023-03-21T13:29:37.130Z,11.82
2023-03-21T13:30:39.925Z,15.90
2023-03-21T13:31:52.056Z,14.68
2023-03-21T13:33:06.155Z,22.15
2023-03-21T13:34:09.427Z,14.68
2023-03-21T13:35:30.899Z,13.43
2023-03-21T13:36:35.812Z,60.50
2023-03-21T13:37:41.053Z,14.65
2023-03-21T13:38:49.452Z,14.40
2023-03-21T13:39:52.530Z,12.75
2023-03-21T13:41:01.294Z,11.40
2023-03-21T13:42:06.811Z,13.10
2023-03-21T13:43:29.861Z,11.15
2023-03-21T13:44:33.362Z,12.07
2023-03-21T13:45:46.035Z,11.38
2023-03-21T13:46:54.972Z,16.85
2023-03-21T13:48:01.116Z,15.57
2023-03-21T13:49:06.121Z,29.48
2023-03-21T13:50:21.726Z,16.43
2023-03-21T13:51:29.897Z,27.80
2023-03-21T13:52:32.581Z,18.58
2023-03-21T13:53:38.429Z,16.35
2023-03-21T13:54:40.758Z,21.65
2023-03-21T13:55:44.740Z,12.35
2023-03-21T13:56:47.478Z,18.50
2023-03-21T13:57:49.808Z,13.20
2023-03-21T13:58:54.029Z,16.42
2023-03-21T14:00:15.614Z,11.23
2023-03-21T14:01:30.764Z,14.07
2023-03-21T14:02:34.185Z,24.80
2023-03-21T14:03:36.622Z,16.90
2023-03-21T14:04:43.219Z,12.45
2023-03-21T14:05:56.594Z,11.75
2023-03-21T14:07:20.269Z,13.68
2023-03-21T14:08:36.581Z,13.10
2023-03-21T14:09:44.521Z,11.85
2023-03-21T14:10:49.202Z,11.93
2023-03-21T14:11:54.832Z,9.52
2023-03-21T14:13:00.155Z,11.23
2023-03-21T14:14:04.909Z,11.68
2023-03-21T14:15:16.820Z,12.52
2023-03-21T14:16:20.992Z,11.63
2023-03-21T14:17:28.246Z,11.02